sensor_id;sensor_type;location;lat;lon;timestamp;P1;durP1;ratioP1;P2;durP2;ratioP2
76566;SDS011;65428;53.194;6.132;2023-11-21T00:01:35;31.97;;;9.43;;
76566;SDS011;65428;53.194;6.132;2023-11-21T00:04:02;38.80;;;9.90;;
76566;SDS011;65428;53.194;6.132;2023-11-21T00:06:27;34.87;;;9.93;;
76566;SDS011;65428;53.194;6.132;2023-11-21T00:08:55;34.40;;;9.35;;
76566;SDS011;65428;53.194;6.132;2023-11-21T00:11:21;35.83;;;10.15;;
76566;SDS011;65428;53.194;6.132;2023-11-21T00:13:46;38.43;;;10.27;;
76566;SDS011;65428;53.194;6.132;2023-11-21T00:16:12;30.08;;;10.15;;
76566;SDS011;65428;53.194;6.132;2023-11-21T00:18:38;31.23;;;9.57;;
76566;SDS011;65428;53.194;6.132;2023-11-21T00:21:04;28.65;;;9.65;;
76566;SDS011;65428;53.194;6.132;2023-11-21T00:23:30;28.05;;;8.93;;
76566;SDS011;65428;53.194;6.132;2023-11-21T00:25:55;25.95;;;8.75;;
76566;SDS011;65428;53.194;6.132;2023-11-21T00:28:21;31.43;;;9.50;;
76566;SDS011;65428;53.194;6.132;2023-11-21T00:30:47;26.47;;;9.57;;
76566;SDS011;65428;53.194;6.132;2023-11-21T00:33:13;39.83;;;10.43;;
76566;SDS011;65428;53.194;6.132;2023-11-21T00:35:38;33.37;;;9.43;;
76566;SDS011;65428;53.194;6.132;2023-11-21T00:38:04;27.80;;;9.00;;
76566;SDS011;65428;53.194;6.132;2023-11-21T00:40:30;27.08;;;8.07;;
76566;SDS011;65428;53.194;6.132;2023-11-21T00:42:55;28.85;;;8.77;;
76566;SDS011;65428;53.194;6.132;2023-11-21T00:45:21;26.67;;;8.67;;
76566;SDS011;65428;53.194;6.132;2023-11-21T00:47:47;28.13;;;9.43;;
76566;SDS011;65428;53.194;6.132;2023-11-21T00:50:13;45.55;;;11.05;;
76566;SDS011;65428;53.194;6.132;2023-11-21T00:52:38;26.60;;;8.93;;
76566;SDS011;65428;53.194;6.132;2023-11-21T00:55:04;30.30;;;9.57;;
76566;SDS011;65428;53.194;6.132;2023-11-21T00:57:32;26.52;;;9.13;;
76566;SDS011;65428;53.194;6.132;2023-11-21T00:59:58;30.67;;;9.57;;
76566;SDS011;65428;53.194;6.132;2023-11-21T01:02:24;31.38;;;9.00;;
76566;SDS011;65428;53.194;6.132;2023-11-21T01:04:50;38.35;;;10.68;;
76566;SDS011;65428;53.194;6.132;2023-11-21T01:07:16;30.23;;;8.93;;
76566;SDS011;65428;53.194;6.132;2023-11-21T01:09:41;34.13;;;10.13;;
76566;SDS011;65428;53.194;6.132;2023-11-21T01:12:09;25.27;;;8.93;;
76566;SDS011;65428;53.194;6.132;2023-11-21T01:14:35;30.17;;;9.95;;
76566;SDS011;65428;53.194;6.132;2023-11-21T01:17:02;27.42;;;9.05;;
76566;SDS011;65428;53.194;6.132;2023-11-21T01:19:29;27.30;;;9.25;;
76566;SDS011;65428;53.194;6.132;2023-11-21T01:21:55;24.80;;;9.18;;
76566;SDS011;65428;53.194;6.132;2023-11-21T01:24:23;25.95;;;8.80;;
76566;SDS011;65428;53.194;6.132;2023-11-21T01:26:48;23.43;;;9.67;;
76566;SDS011;65428;53.194;6.132;2023-11-21T01:29:14;26.70;;;9.27;;
76566;SDS011;65428;53.194;6.132;2023-11-21T01:31:40;27.33;;;9.65;;
76566;SDS011;65428;53.194;6.132;2023-11-21T01:34:06;23.25;;;9.23;;
76566;SDS011;65428;53.194;6.132;2023-11-21T01:36:32;30.98;;;10.40;;
76566;SDS011;65428;53.194;6.132;2023-11-21T01:38:58;32.72;;;9.55;;
76566;SDS011;65428;53.194;6.132;2023-11-21T01:41:25;34.35;;;9.85;;
76566;SDS011;65428;53.194;6.132;2023-11-21T01:43:52;40.80;;;11.68;;
76566;SDS011;65428;53.194;6.132;2023-11-21T01:46:19;33.17;;;11.30;;
76566;SDS011;65428;53.194;6.132;2023-11-21T01:48:45;22.60;;;10.15;;
76566;SDS011;65428;53.194;6.132;2023-11-21T01:51:13;46.20;;;12.05;;
76566;SDS011;65428;53.194;6.132;2023-11-21T01:53:38;27.23;;;9.93;;
76566;SDS011;65428;53.194;6.132;2023-11-21T01:56:05;27.05;;;10.05;;
76566;SDS011;65428;53.194;6.132;2023-11-21T01:58:33;43.28;;;11.20;;
76566;SDS011;65428;53.194;6.132;2023-11-21T02:00:58;46.20;;;11.25;;
76566;SDS011;65428;53.194;6.132;2023-11-21T02:03:24;23.77;;;8.93;;
76566;SDS011;65428;53.194;6.132;2023-11-21T02:05:51;26.35;;;9.75;;
76566;SDS011;65428;53.194;6.132;2023-11-21T02:08:18;30.52;;;10.85;;
76566;SDS011;65428;53.194;6.132;2023-11-21T02:10:45;32.70;;;10.25;;
76566;SDS011;65428;53.194;6.132;2023-11-21T02:13:10;28.75;;;9.57;;
76566;SDS011;65428;53.194;6.132;2023-11-21T02:15:36;35.95;;;11.00;;
76566;SDS011;65428;53.194;6.132;2023-11-21T02:18:03;30.05;;;10.40;;
76566;SDS011;65428;53.194;6.132;2023-11-21T02:20:31;42.05;;;11.45;;
76566;SDS011;65428;53.194;6.132;2023-11-21T02:23:02;34.58;;;10.60;;
76566;SDS011;65428;53.194;6.132;2023-11-21T02:25:28;47.50;;;12.07;;
76566;SDS011;65428;53.194;6.132;2023-11-21T02:27:59;44.03;;;11.17;;
76566;SDS011;65428;53.194;6.132;2023-11-21T02:30:27;22.52;;;9.15;;
76566;SDS011;65428;53.194;6.132;2023-11-21T02:32:53;29.88;;;10.25;;
76566;SDS011;65428;53.194;6.132;2023-11-21T02:35:20;26.13;;;9.55;;
76566;SDS011;65428;53.194;6.132;2023-11-21T02:37:49;28.57;;;9.60;;
76566;SDS011;65428;53.194;6.132;2023-11-21T02:40:15;34.85;;;11.20;;
76566;SDS011;65428;53.194;6.132;2023-11-21T02:42:45;40.00;;;11.40;;
76566;SDS011;65428;53.194;6.132;2023-11-21T02:45:17;35.77;;;11.23;;
76566;SDS011;65428;53.194;6.132;2023-11-21T02:47:45;31.08;;;10.70;;
76566;SDS011;65428;53.194;6.132;2023-11-21T02:50:11;32.47;;;10.15;;
76566;SDS011;65428;53.194;6.132;2023-11-21T02:52:38;25.83;;;9.38;;
76566;SDS011;65428;53.194;6.132;2023-11-21T02:55:05;24.00;;;8.57;;
76566;SDS011;65428;53.194;6.132;2023-11-21T02:57:32;24.48;;;8.30;;
76566;SDS011;65428;53.194;6.132;2023-11-21T02:59:58;26.67;;;8.27;;
76566;SDS011;65428;53.194;6.132;2023-11-21T03:02:25;19.25;;;7.60;;
76566;SDS011;65428;53.194;6.132;2023-11-21T03:04:51;22.80;;;8.50;;
76566;SDS011;65428;53.194;6.132;2023-11-21T03:07:17;28.75;;;9.40;;
76566;SDS011;65428;53.194;6.132;2023-11-21T03:09:44;28.95;;;10.00;;
76566;SDS011;65428;53.194;6.132;2023-11-21T03:12:10;27.35;;;9.13;;
76566;SDS011;65428;53.194;6.132;2023-11-21T03:14:37;21.15;;;8.77;;
76566;SDS011;65428;53.194;6.132;2023-11-21T03:17:04;34.70;;;9.65;;
76566;SDS011;65428;53.194;6.132;2023-11-21T03:19:30;21.90;;;8.57;;
76566;SDS011;65428;53.194;6.132;2023-11-21T03:21:56;24.55;;;8.75;;
76566;SDS011;65428;53.194;6.132;2023-11-21T03:24:21;24.33;;;9.07;;
76566;SDS011;65428;53.194;6.132;2023-11-21T03:26:48;33.20;;;10.83;;
76566;SDS011;65428;53.194;6.132;2023-11-21T03:29:14;29.50;;;11.52;;
76566;SDS011;65428;53.194;6.132;2023-11-21T03:31:40;32.95;;;12.38;;
76566;SDS011;65428;53.194;6.132;2023-11-21T03:34:06;40.90;;;12.90;;
76566;SDS011;65428;53.194;6.132;2023-11-21T03:36:32;36.25;;;12.95;;
76566;SDS011;65428;53.194;6.132;2023-11-21T03:38:57;36.07;;;12.83;;
76566;SDS011;65428;53.194;6.132;2023-11-21T03:41:23;47.67;;;14.55;;
76566;SDS011;65428;53.194;6.132;2023-11-21T03:43:48;28.10;;;12.90;;
76566;SDS011;65428;53.194;6.132;2023-11-21T03:46:14;37.60;;;13.63;;
76566;SDS011;65428;53.194;6.132;2023-11-21T03:48:40;33.22;;;14.82;;
76566;SDS011;65428;53.194;6.132;2023-11-21T03:51:07;39.55;;;15.75;;
76566;SDS011;65428;53.194;6.132;2023-11-21T03:53:32;40.00;;;15.13;;
76566;SDS011;65428;53.194;6.132;2023-11-21T03:55:58;37.30;;;15.18;;
76566;SDS011;65428;53.194;6.132;2023-11-21T03:58:28;44.38;;;17.20;;
76566;SDS011;65428;53.194;6.132;2023-11-21T04:00:53;42.10;;;16.90;;
76566;SDS011;65428;53.194;6.132;2023-11-21T04:03:19;41.67;;;16.75;;
76566;SDS011;65428;53.194;6.132;2023-11-21T04:05:45;56.72;;;18.52;;
76566;SDS011;65428;53.194;6.132;2023-11-21T04:08:11;36.70;;;16.57;;
76566;SDS011;65428;53.194;6.132;2023-11-21T04:10:36;40.37;;;16.73;;
76566;SDS011;65428;53.194;6.132;2023-11-21T04:13:04;48.97;;;17.42;;
76566;SDS011;65428;53.194;6.132;2023-11-21T04:15:31;34.28;;;16.08;;
76566;SDS011;65428;53.194;6.132;2023-11-21T04:17:57;39.03;;;16.55;;
76566;SDS011;65428;53.194;6.132;2023-11-21T04:20:23;40.72;;;17.52;;
76566;SDS011;65428;53.194;6.132;2023-11-21T04:22:58;43.67;;;17.30;;
76566;SDS011;65428;53.194;6.132;2023-11-21T04:25:24;51.60;;;18.37;;
76566;SDS011;65428;53.194;6.132;2023-11-21T04:27:50;46.53;;;18.53;;
76566;SDS011;65428;53.194;6.132;2023-11-21T04:30:15;47.55;;;17.60;;
76566;SDS011;65428;53.194;6.132;2023-11-21T04:32:41;44.88;;;17.20;;
76566;SDS011;65428;53.194;6.132;2023-11-21T04:35:07;46.22;;;17.42;;
76566;SDS011;65428;53.194;6.132;2023-11-21T04:37:36;47.53;;;18.10;;
76566;SDS011;65428;53.194;6.132;2023-11-21T04:40:02;41.80;;;17.77;;
76566;SDS011;65428;53.194;6.132;2023-11-21T04:42:33;60.08;;;19.58;;
76566;SDS011;65428;53.194;6.132;2023-11-21T04:45:00;58.25;;;19.55;;
76566;SDS011;65428;53.194;6.132;2023-11-21T04:47:26;54.30;;;19.70;;
76566;SDS011;65428;53.194;6.132;2023-11-21T04:49:52;46.60;;;17.60;;
76566;SDS011;65428;53.194;6.132;2023-11-21T04:52:17;53.42;;;19.98;;
76566;SDS011;65428;53.194;6.132;2023-11-21T04:54:45;61.27;;;20.33;;
76566;SDS011;65428;53.194;6.132;2023-11-21T04:57:10;47.93;;;18.40;;
76566;SDS011;65428;53.194;6.132;2023-11-21T04:59:37;63.45;;;20.80;;
76566;SDS011;65428;53.194;6.132;2023-11-21T05:02:02;62.72;;;21.52;;
76566;SDS011;65428;53.194;6.132;2023-11-21T05:04:30;61.95;;;20.83;;
76566;SDS011;65428;53.194;6.132;2023-11-21T05:06:55;56.13;;;20.20;;
76566;SDS011;65428;53.194;6.132;2023-11-21T05:09:21;58.47;;;20.08;;
76566;SDS011;65428;53.194;6.132;2023-11-21T05:11:47;46.25;;;18.55;;
76566;SDS011;65428;53.194;6.132;2023-11-21T05:14:13;61.10;;;19.77;;
76566;SDS011;65428;53.194;6.132;2023-11-21T05:16:39;49.88;;;19.40;;
76566;SDS011;65428;53.194;6.132;2023-11-21T05:19:04;47.88;;;19.02;;
76566;SDS011;65428;53.194;6.132;2023-11-21T05:21:31;48.80;;;18.67;;
76566;SDS011;65428;53.194;6.132;2023-11-21T05:24:01;45.42;;;18.02;;
76566;SDS011;65428;53.194;6.132;2023-11-21T05:26:26;46.67;;;18.13;;
76566;SDS011;65428;53.194;6.132;2023-11-21T05:28:52;51.15;;;18.95;;
76566;SDS011;65428;53.194;6.132;2023-11-21T05:31:18;45.92;;;19.88;;
76566;SDS011;65428;53.194;6.132;2023-11-21T05:33:44;49.37;;;19.73;;
76566;SDS011;65428;53.194;6.132;2023-11-21T05:36:10;44.07;;;19.50;;
76566;SDS011;65428;53.194;6.132;2023-11-21T05:38:36;38.50;;;18.20;;
76566;SDS011;65428;53.194;6.132;2023-11-21T05:41:04;45.75;;;18.17;;
76566;SDS011;65428;53.194;6.132;2023-11-21T05:43:30;48.75;;;19.08;;
76566;SDS011;65428;53.194;6.132;2023-11-21T05:45:57;54.92;;;19.23;;
76566;SDS011;65428;53.194;6.132;2023-11-21T05:48:23;45.67;;;18.77;;
76566;SDS011;65428;53.194;6.132;2023-11-21T05:50:53;50.38;;;18.48;;
76566;SDS011;65428;53.194;6.132;2023-11-21T05:53:19;43.92;;;18.02;;
76566;SDS011;65428;53.194;6.132;2023-11-21T05:55:47;42.25;;;16.73;;
76566;SDS011;65428;53.194;6.132;2023-11-21T05:58:13;47.53;;;16.92;;
76566;SDS011;65428;53.194;6.132;2023-11-21T06:00:39;42.53;;;16.03;;
76566;SDS011;65428;53.194;6.132;2023-11-21T06:03:04;43.60;;;15.50;;
76566;SDS011;65428;53.194;6.132;2023-11-21T06:05:33;41.83;;;15.60;;
76566;SDS011;65428;53.194;6.132;2023-11-21T06:08:01;33.25;;;14.80;;
76566;SDS011;65428;53.194;6.132;2023-11-21T06:10:27;38.83;;;15.23;;
76566;SDS011;65428;53.194;6.132;2023-11-21T06:12:53;40.47;;;15.10;;
76566;SDS011;65428;53.194;6.132;2023-11-21T06:15:19;38.40;;;14.70;;
76566;SDS011;65428;53.194;6.132;2023-11-21T06:17:46;37.25;;;14.95;;
76566;SDS011;65428;53.194;6.132;2023-11-21T06:20:14;45.85;;;15.68;;
76566;SDS011;65428;53.194;6.132;2023-11-21T06:22:43;51.97;;;15.85;;
76566;SDS011;65428;53.194;6.132;2023-11-21T06:25:10;39.08;;;14.85;;
76566;SDS011;65428;53.194;6.132;2023-11-21T06:27:41;37.28;;;14.75;;
76566;SDS011;65428;53.194;6.132;2023-11-21T06:30:11;38.87;;;14.90;;
76566;SDS011;65428;53.194;6.132;2023-11-21T06:32:39;37.78;;;14.80;;
76566;SDS011;65428;53.194;6.132;2023-11-21T06:35:05;43.92;;;15.93;;
76566;SDS011;65428;53.194;6.132;2023-11-21T06:37:32;50.73;;;18.63;;
76566;SDS011;65428;53.194;6.132;2023-11-21T06:39:58;58.73;;;20.30;;
76566;SDS011;65428;53.194;6.132;2023-11-21T06:42:27;55.60;;;20.95;;
76566;SDS011;65428;53.194;6.132;2023-11-21T06:45:12;75.97;;;23.17;;
76566;SDS011;65428;53.194;6.132;2023-11-21T06:47:38;78.50;;;24.90;;
76566;SDS011;65428;53.194;6.132;2023-11-21T06:50:04;75.50;;;25.23;;
76566;SDS011;65428;53.194;6.132;2023-11-21T06:52:38;83.38;;;26.63;;
76566;SDS011;65428;53.194;6.132;2023-11-21T06:55:15;80.88;;;26.15;;
76566;SDS011;65428;53.194;6.132;2023-11-21T06:57:41;78.28;;;27.08;;
76566;SDS011;65428;53.194;6.132;2023-11-21T07:00:11;80.68;;;27.42;;
76566;SDS011;65428;53.194;6.132;2023-11-21T07:06:18;90.40;;;28.15;;
76566;SDS011;65428;53.194;6.132;2023-11-21T07:08:44;91.67;;;28.23;;
76566;SDS011;65428;53.194;6.132;2023-11-21T07:11:12;95.93;;;30.73;;
76566;SDS011;65428;53.194;6.132;2023-11-21T07:13:47;86.55;;;26.60;;
76566;SDS011;65428;53.194;6.132;2023-11-21T07:16:13;75.78;;;25.92;;
76566;SDS011;65428;53.194;6.132;2023-11-21T07:18:40;71.07;;;24.90;;
76566;SDS011;65428;53.194;6.132;2023-11-21T07:21:05;72.53;;;24.20;;
76566;SDS011;65428;53.194;6.132;2023-11-21T07:23:32;62.33;;;24.35;;
76566;SDS011;65428;53.194;6.132;2023-11-21T07:26:12;56.38;;;23.45;;
76566;SDS011;65428;53.194;6.132;2023-11-21T07:28:38;68.87;;;24.87;;
76566;SDS011;65428;53.194;6.132;2023-11-21T07:31:04;56.97;;;23.95;;
76566;SDS011;65428;53.194;6.132;2023-11-21T07:33:32;60.78;;;23.80;;
76566;SDS011;65428;53.194;6.132;2023-11-21T07:35:58;55.45;;;22.75;;
76566;SDS011;65428;53.194;6.132;2023-11-21T07:38:24;58.00;;;22.50;;
76566;SDS011;65428;53.194;6.132;2023-11-21T07:40:51;47.80;;;21.95;;
76566;SDS011;65428;53.194;6.132;2023-11-21T07:43:16;51.50;;;21.90;;
76566;SDS011;65428;53.194;6.132;2023-11-21T07:45:44;54.67;;;22.15;;
76566;SDS011;65428;53.194;6.132;2023-11-21T07:48:10;45.85;;;21.15;;
76566;SDS011;65428;53.194;6.132;2023-11-21T07:50:36;34.97;;;19.88;;
76566;SDS011;65428;53.194;6.132;2023-11-21T07:53:04;39.03;;;19.53;;
76566;SDS011;65428;53.194;6.132;2023-11-21T07:55:30;31.80;;;18.13;;
76566;SDS011;65428;53.194;6.132;2023-11-21T07:58:00;35.88;;;18.48;;
76566;SDS011;65428;53.194;6.132;2023-11-21T08:00:34;36.33;;;18.63;;
76566;SDS011;65428;53.194;6.132;2023-11-21T08:03:00;33.28;;;18.10;;
76566;SDS011;65428;53.194;6.132;2023-11-21T08:05:28;31.90;;;18.17;;
76566;SDS011;65428;53.194;6.132;2023-11-21T08:07:54;37.33;;;20.13;;
76566;SDS011;65428;53.194;6.132;2023-11-21T08:10:23;41.03;;;20.20;;
76566;SDS011;65428;53.194;6.132;2023-11-21T08:12:51;41.77;;;21.40;;
76566;SDS011;65428;53.194;6.132;2023-11-21T08:15:18;42.03;;;21.23;;
76566;SDS011;65428;53.194;6.132;2023-11-21T08:17:45;39.25;;;21.52;;
76566;SDS011;65428;53.194;6.132;2023-11-21T08:20:14;44.83;;;22.02;;
76566;SDS011;65428;53.194;6.132;2023-11-21T08:22:46;42.47;;;21.48;;
76566;SDS011;65428;53.194;6.132;2023-11-21T08:25:14;42.07;;;21.47;;
76566;SDS011;65428;53.194;6.132;2023-11-21T08:27:40;46.87;;;22.37;;
76566;SDS011;65428;53.194;6.132;2023-11-21T08:30:06;37.67;;;21.80;;
76566;SDS011;65428;53.194;6.132;2023-11-21T08:32:32;39.27;;;22.17;;
76566;SDS011;65428;53.194;6.132;2023-11-21T08:35:01;42.50;;;21.97;;
76566;SDS011;65428;53.194;6.132;2023-11-21T08:37:27;37.65;;;21.83;;
76566;SDS011;65428;53.194;6.132;2023-11-21T08:39:55;40.45;;;22.75;;
76566;SDS011;65428;53.194;6.132;2023-11-21T08:42:24;40.60;;;22.77;;
76566;SDS011;65428;53.194;6.132;2023-11-21T08:44:53;41.10;;;22.92;;
76566;SDS011;65428;53.194;6.132;2023-11-21T08:47:19;36.97;;;22.40;;
76566;SDS011;65428;53.194;6.132;2023-11-21T08:49:47;38.17;;;24.00;;
76566;SDS011;65428;53.194;6.132;2023-11-21T08:52:18;37.90;;;23.55;;
76566;SDS011;65428;53.194;6.132;2023-11-21T08:54:47;42.33;;;25.00;;
76566;SDS011;65428;53.194;6.132;2023-11-21T08:57:13;40.03;;;23.73;;
76566;SDS011;65428;53.194;6.132;2023-11-21T08:59:39;39.95;;;23.83;;
76566;SDS011;65428;53.194;6.132;2023-11-21T09:02:05;34.07;;;22.97;;
76566;SDS011;65428;53.194;6.132;2023-11-21T09:04:31;34.67;;;23.37;;
76566;SDS011;65428;53.194;6.132;2023-11-21T09:06:56;32.53;;;22.10;;
76566;SDS011;65428;53.194;6.132;2023-11-21T09:09:25;28.27;;;20.93;;
76566;SDS011;65428;53.194;6.132;2023-11-21T09:11:50;28.10;;;20.83;;
76566;SDS011;65428;53.194;6.132;2023-11-21T09:14:16;28.45;;;21.00;;
76566;SDS011;65428;53.194;6.132;2023-11-21T09:16:43;25.17;;;19.33;;
76566;SDS011;65428;53.194;6.132;2023-11-21T09:19:15;24.23;;;18.83;;
76566;SDS011;65428;53.194;6.132;2023-11-21T09:21:40;22.95;;;17.50;;
76566;SDS011;65428;53.194;6.132;2023-11-21T09:24:06;22.13;;;17.52;;
76566;SDS011;65428;53.194;6.132;2023-11-21T09:26:37;22.70;;;17.58;;
76566;SDS011;65428;53.194;6.132;2023-11-21T09:29:02;21.53;;;17.40;;
76566;SDS011;65428;53.194;6.132;2023-11-21T09:31:30;21.60;;;17.38;;
76566;SDS011;65428;53.194;6.132;2023-11-21T09:33:58;20.20;;;16.50;;
76566;SDS011;65428;53.194;6.132;2023-11-21T09:36:24;20.63;;;15.93;;
76566;SDS011;65428;53.194;6.132;2023-11-21T09:38:52;19.08;;;15.63;;
76566;SDS011;65428;53.194;6.132;2023-11-21T09:41:28;19.98;;;15.65;;
76566;SDS011;65428;53.194;6.132;2023-11-21T09:44:35;18.38;;;14.88;;
76566;SDS011;65428;53.194;6.132;2023-11-21T09:47:25;21.35;;;15.50;;
76566;SDS011;65428;53.194;6.132;2023-11-21T09:49:51;19.05;;;15.20;;
76566;SDS011;65428;53.194;6.132;2023-11-21T09:52:24;20.90;;;15.97;;
76566;SDS011;65428;53.194;6.132;2023-11-21T09:54:54;22.30;;;17.23;;
76566;SDS011;65428;53.194;6.132;2023-11-21T09:57:30;22.67;;;18.30;;
76566;SDS011;65428;53.194;6.132;2023-11-21T09:59:56;22.80;;;18.90;;
76566;SDS011;65428;53.194;6.132;2023-11-21T10:02:29;24.50;;;20.13;;
76566;SDS011;65428;53.194;6.132;2023-11-21T10:04:56;23.08;;;19.10;;
76566;SDS011;65428;53.194;6.132;2023-11-21T10:07:38;24.15;;;20.30;;
76566;SDS011;65428;53.194;6.132;2023-11-21T10:10:06;21.88;;;18.73;;
76566;SDS011;65428;53.194;6.132;2023-11-21T10:12:33;23.27;;;19.40;;
76566;SDS011;65428;53.194;6.132;2023-11-21T10:15:00;19.67;;;17.17;;
76566;SDS011;65428;53.194;6.132;2023-11-21T10:17:31;22.02;;;18.10;;
76566;SDS011;65428;53.194;6.132;2023-11-21T10:20:17;17.83;;;15.93;;
76566;SDS011;65428;53.194;6.132;2023-11-21T10:23:01;18.70;;;16.70;;
76566;SDS011;65428;53.194;6.132;2023-11-21T10:25:35;15.63;;;14.03;;
76566;SDS011;65428;53.194;6.132;2023-11-21T10:28:02;15.25;;;13.70;;
76566;SDS011;65428;53.194;6.132;2023-11-21T10:30:38;14.93;;;13.32;;
76566;SDS011;65428;53.194;6.132;2023-11-21T10:33:11;14.43;;;12.93;;
76566;SDS011;65428;53.194;6.132;2023-11-21T10:36:24;14.10;;;12.70;;
76566;SDS011;65428;53.194;6.132;2023-11-21T10:38:51;12.88;;;11.63;;
76566;SDS011;65428;53.194;6.132;2023-11-21T10:43:59;12.37;;;11.17;;
76566;SDS011;65428;53.194;6.132;2023-11-21T10:49:24;13.93;;;12.53;;
76566;SDS011;65428;53.194;6.132;2023-11-21T10:51:51;14.80;;;13.30;;
76566;SDS011;65428;53.194;6.132;2023-11-21T10:54:28;13.68;;;11.27;;
76566;SDS011;65428;53.194;6.132;2023-11-21T10:57:03;12.55;;;11.20;;
76566;SDS011;65428;53.194;6.132;2023-11-21T10:59:53;11.93;;;10.73;;
76566;SDS011;65428;53.194;6.132;2023-11-21T11:08:05;15.55;;;13.07;;
76566;SDS011;65428;53.194;6.132;2023-11-21T11:10:33;12.65;;;11.02;;
76566;SDS011;65428;53.194;6.132;2023-11-21T11:12:59;11.90;;;10.55;;
76566;SDS011;65428;53.194;6.132;2023-11-21T11:15:50;11.45;;;10.15;;
76566;SDS011;65428;53.194;6.132;2023-11-21T11:18:57;14.00;;;12.13;;
76566;SDS011;65428;53.194;6.132;2023-11-21T11:21:38;11.10;;;9.55;;
76566;SDS011;65428;53.194;6.132;2023-11-21T11:28:14;10.60;;;9.23;;
76566;SDS011;65428;53.194;6.132;2023-11-21T11:31:10;9.60;;;8.20;;
76566;SDS011;65428;53.194;6.132;2023-11-21T11:33:53;8.23;;;7.40;;
76566;SDS011;65428;53.194;6.132;2023-11-21T11:41:05;9.32;;;7.80;;
76566;SDS011;65428;53.194;6.132;2023-11-21T11:43:32;7.82;;;6.97;;
76566;SDS011;65428;53.194;6.132;2023-11-21T11:46:02;7.78;;;6.97;;
76566;SDS011;65428;53.194;6.132;2023-11-21T11:48:34;7.70;;;6.95;;
76566;SDS011;65428;53.194;6.132;2023-11-21T11:53:38;7.65;;;6.88;;
76566;SDS011;65428;53.194;6.132;2023-11-21T11:59:10;7.13;;;6.43;;
76566;SDS011;65428;53.194;6.132;2023-11-21T12:01:38;7.72;;;6.93;;
76566;SDS011;65428;53.194;6.132;2023-11-21T12:07:18;7.45;;;6.40;;
76566;SDS011;65428;53.194;6.132;2023-11-21T12:09:47;6.43;;;5.57;;
76566;SDS011;65428;53.194;6.132;2023-11-21T12:12:13;6.72;;;6.00;;
76566;SDS011;65428;53.194;6.132;2023-11-21T12:14:39;6.80;;;6.07;;
76566;SDS011;65428;53.194;6.132;2023-11-21T12:17:05;7.43;;;6.72;;
76566;SDS011;65428;53.194;6.132;2023-11-21T12:19:30;7.30;;;6.57;;
76566;SDS011;65428;53.194;6.132;2023-11-21T12:21:56;7.90;;;6.70;;
76566;SDS011;65428;53.194;6.132;2023-11-21T12:34:02;7.93;;;6.60;;
76566;SDS011;65428;53.194;6.132;2023-11-21T12:36:48;7.65;;;6.72;;
76566;SDS011;65428;53.194;6.132;2023-11-21T12:39:19;7.93;;;7.10;;
76566;SDS011;65428;53.194;6.132;2023-11-21T12:41:51;7.85;;;6.95;;
76566;SDS011;65428;53.194;6.132;2023-11-21T12:44:16;7.20;;;6.33;;
76566;SDS011;65428;53.194;6.132;2023-11-21T12:46:46;7.50;;;6.75;;
76566;SDS011;65428;53.194;6.132;2023-11-21T12:49:29;7.40;;;6.57;;
76566;SDS011;65428;53.194;6.132;2023-11-21T12:52:03;7.15;;;5.82;;
76566;SDS011;65428;53.194;6.132;2023-11-21T12:54:29;6.35;;;5.40;;
76566;SDS011;65428;53.194;6.132;2023-11-21T12:57:07;6.35;;;5.75;;
76566;SDS011;65428;53.194;6.132;2023-11-21T12:59:41;7.13;;;6.20;;
76566;SDS011;65428;53.194;6.132;2023-11-21T13:02:41;6.80;;;5.28;;
76566;SDS011;65428;53.194;6.132;2023-11-21T13:15:49;7.45;;;6.57;;
76566;SDS011;65428;53.194;6.132;2023-11-21T13:18:40;7.65;;;6.85;;
76566;SDS011;65428;53.194;6.132;2023-11-21T13:21:13;8.57;;;7.03;;
76566;SDS011;65428;53.194;6.132;2023-11-21T13:23:38;8.57;;;7.45;;
76566;SDS011;65428;53.194;6.132;2023-11-21T13:26:06;8.25;;;7.38;;
76566;SDS011;65428;53.194;6.132;2023-11-21T13:28:32;8.88;;;7.57;;
76566;SDS011;65428;53.194;6.132;2023-11-21T13:31:15;9.23;;;7.30;;
76566;SDS011;65428;53.194;6.132;2023-11-21T13:33:46;9.27;;;6.97;;
76566;SDS011;65428;53.194;6.132;2023-11-21T13:42:38;8.98;;;7.55;;
76566;SDS011;65428;53.194;6.132;2023-11-21T13:51:13;11.65;;;9.23;;
76566;SDS011;65428;53.194;6.132;2023-11-21T13:54:02;10.85;;;8.77;;
76566;SDS011;65428;53.194;6.132;2023-11-21T13:56:37;9.30;;;7.55;;
76566;SDS011;65428;53.194;6.132;2023-11-21T14:02:52;9.10;;;7.43;;
76566;SDS011;65428;53.194;6.132;2023-11-21T14:05:18;8.67;;;7.60;;
76566;SDS011;65428;53.194;6.132;2023-11-21T14:11:02;8.95;;;6.40;;
76566;SDS011;65428;53.194;6.132;2023-11-21T14:18:55;8.57;;;7.22;;
76566;SDS011;65428;53.194;6.132;2023-11-21T14:21:34;7.73;;;6.40;;
76566;SDS011;65428;53.194;6.132;2023-11-21T14:24:00;6.73;;;5.77;;
76566;SDS011;65428;53.194;6.132;2023-11-21T14:26:34;8.25;;;6.20;;
76566;SDS011;65428;53.194;6.132;2023-11-21T14:29:03;5.85;;;4.47;;
76566;SDS011;65428;53.194;6.132;2023-11-21T14:31:33;8.27;;;4.85;;
76566;SDS011;65428;53.194;6.132;2023-11-21T14:33:59;5.90;;;4.38;;
76566;SDS011;65428;53.194;6.132;2023-11-21T14:36:26;8.68;;;4.82;;
76566;SDS011;65428;53.194;6.132;2023-11-21T14:38:53;7.05;;;5.13;;
76566;SDS011;65428;53.194;6.132;2023-11-21T14:41:19;7.47;;;5.35;;
76566;SDS011;65428;53.194;6.132;2023-11-21T14:43:44;6.73;;;5.20;;
76566;SDS011;65428;53.194;6.132;2023-11-21T14:46:14;8.35;;;6.40;;
76566;SDS011;65428;53.194;6.132;2023-11-21T14:48:42;7.35;;;5.70;;
76566;SDS011;65428;53.194;6.132;2023-11-21T14:51:08;8.07;;;6.10;;
76566;SDS011;65428;53.194;6.132;2023-11-21T14:53:37;8.07;;;6.33;;
76566;SDS011;65428;53.194;6.132;2023-11-21T14:56:24;7.30;;;5.28;;
76566;SDS011;65428;53.194;6.132;2023-11-21T14:58:58;6.13;;;5.53;;
76566;SDS011;65428;53.194;6.132;2023-11-21T15:01:41;8.73;;;6.15;;
76566;SDS011;65428;53.194;6.132;2023-11-21T15:04:23;7.53;;;5.00;;
76566;SDS011;65428;53.194;6.132;2023-11-21T15:07:01;6.00;;;5.15;;
76566;SDS011;65428;53.194;6.132;2023-11-21T15:09:28;7.65;;;5.40;;
76566;SDS011;65428;53.194;6.132;2023-11-21T15:12:04;6.20;;;5.37;;
76566;SDS011;65428;53.194;6.132;2023-11-21T15:14:43;8.23;;;5.25;;
76566;SDS011;65428;53.194;6.132;2023-11-21T15:17:11;7.63;;;6.00;;
76566;SDS011;65428;53.194;6.132;2023-11-21T15:19:43;6.55;;;5.03;;
76566;SDS011;65428;53.194;6.132;2023-11-21T15:22:09;7.13;;;4.83;;
76566;SDS011;65428;53.194;6.132;2023-11-21T15:24:38;7.55;;;4.60;;
76566;SDS011;65428;53.194;6.132;2023-11-21T15:27:06;7.25;;;4.93;;
76566;SDS011;65428;53.194;6.132;2023-11-21T15:29:32;6.23;;;4.40;;
76566;SDS011;65428;53.194;6.132;2023-11-21T15:37:25;7.13;;;4.03;;
76566;SDS011;65428;53.194;6.132;2023-11-21T15:39:54;5.55;;;4.30;;
76566;SDS011;65428;53.194;6.132;2023-11-21T15:42:20;7.35;;;4.45;;
76566;SDS011;65428;53.194;6.132;2023-11-21T15:44:46;8.55;;;4.97;;
76566;SDS011;65428;53.194;6.132;2023-11-21T15:47:11;7.28;;;4.80;;
76566;SDS011;65428;53.194;6.132;2023-11-21T15:49:37;7.35;;;4.70;;
76566;SDS011;65428;53.194;6.132;2023-11-21T15:52:06;5.30;;;4.40;;
76566;SDS011;65428;53.194;6.132;2023-11-21T15:54:37;6.38;;;3.85;;
76566;SDS011;65428;53.194;6.132;2023-11-21T15:57:30;6.80;;;4.77;;
76566;SDS011;65428;53.194;6.132;2023-11-21T16:07:12;6.20;;;3.88;;
76566;SDS011;65428;53.194;6.132;2023-11-21T16:09:41;5.05;;;4.30;;